sensor_id;sensor_type;location;lat;lon;timestamp;pressure;altitude;pressure_sealevel;temperature;humidity
72308;BME280;60257;42.638;23.376;2023-04-06T00:00:52;94300.25;;;-0.28;64.86
72308;BME280;60257;42.638;23.376;2023-04-06T00:03:18;94321.81;;;-0.28;64.54
72308;BME280;60257;42.638;23.376;2023-04-06T00:05:44;94310.47;;;-0.25;64.54
72308;BME280;60257;42.638;23.376;2023-04-06T00:08:09;94318.09;;;-0.32;64.87
72308;BME280;60257;42.638;23.376;2023-04-06T00:10:35;94316.25;;;-0.37;65.43
72308;BME280;60257;42.638;23.376;2023-04-06T00:13:01;94315.16;;;-0.36;65.02
72308;BME280;60257;42.638;23.376;2023-04-06T00:15:26;94309.75;;;-0.36;65.43
72308;BME280;60257;42.638;23.376;2023-04-06T00:17:52;94303.75;;;-0.28;64.93
72308;BME280;60257;42.638;23.376;2023-04-06T00:20:18;94306.97;;;-0.26;65.02
72308;BME280;60257;42.638;23.376;2023-04-06T00:22:44;94304.16;;;-0.40;65.21
72308;BME280;60257;42.638;23.376;2023-04-06T00:25:10;94309.75;;;-0.36;65.20
72308;BME280;60257;42.638;23.376;2023-04-06T00:27:39;94299.06;;;-0.41;64.93
72308;BME280;60257;42.638;23.376;2023-04-06T00:30:05;94289.09;;;-0.41;65.14
72308;BME280;60257;42.638;23.376;2023-04-06T00:32:31;94295.03;;;-0.44;64.90
72308;BME280;60257;42.638;23.376;2023-04-06T00:34:58;94292.16;;;-0.52;65.42
72308;BME280;60257;42.638;23.376;2023-04-06T00:37:24;94297.28;;;-0.51;65.93
72308;BME280;60257;42.638;23.376;2023-04-06T00:39:49;94270.75;;;-0.62;65.94
72308;BME280;60257;42.638;23.376;2023-04-06T00:42:17;94294.22;;;-0.44;65.68
72308;BME280;60257;42.638;23.376;2023-04-06T00:44:51;94292.34;;;-0.44;65.52
72308;BME280;60257;42.638;23.376;2023-04-06T00:47:17;94282.44;;;-0.48;65.99
72308;BME280;60257;42.638;23.376;2023-04-06T00:49:43;94290.19;;;-0.42;65.38
72308;BME280;60257;42.638;23.376;2023-04-06T00:52:08;94290.00;;;-0.50;65.84
72308;BME280;60257;42.638;23.376;2023-04-06T00:54:34;94285.97;;;-0.53;66.36
72308;BME280;60257;42.638;23.376;2023-04-06T00:57:00;94288.03;;;-0.45;65.96
72308;BME280;60257;42.638;23.376;2023-04-06T00:59:28;94279.00;;;-0.54;66.02
72308;BME280;60257;42.638;23.376;2023-04-06T01:01:54;94285.50;;;-0.55;66.08
72308;BME280;60257;42.638;23.376;2023-04-06T01:04:20;94292.16;;;-0.52;65.90
72308;BME280;60257;42.638;23.376;2023-04-06T01:06:48;94290.81;;;-0.50;66.19
72308;BME280;60257;42.638;23.376;2023-04-06T01:09:14;94282.38;;;-0.43;65.78
72308;BME280;60257;42.638;23.376;2023-04-06T01:11:39;94284.78;;;-0.42;65.82
72308;BME280;60257;42.638;23.376;2023-04-06T01:14:05;94277.22;;;-0.40;66.26
72308;BME280;60257;42.638;23.376;2023-04-06T01:16:31;94286.84;;;-0.33;66.09
72308;BME280;60257;42.638;23.376;2023-04-06T01:18:57;94264.84;;;-0.41;65.58
72308;BME280;60257;42.638;23.376;2023-04-06T01:21:22;94269.34;;;-0.36;65.91
72308;BME280;60257;42.638;23.376;2023-04-06T01:23:48;94269.16;;;-0.40;66.35
72308;BME280;60257;42.638;23.376;2023-04-06T01:26:14;94243.97;;;-0.54;66.68
72308;BME280;60257;42.638;23.376;2023-04-06T01:28:39;94262.50;;;-0.47;66.45
72308;BME280;60257;42.638;23.376;2023-04-06T01:31:07;94277.91;;;-0.53;66.30
72308;BME280;60257;42.638;23.376;2023-04-06T01:33:32;94265.75;;;-0.50;66.51
72308;BME280;60257;42.638;23.376;2023-04-06T01:35:58;94257.00;;;-0.61;66.80
72308;BME280;60257;42.638;23.376;2023-04-06T01:38:25;94260.44;;;-0.55;67.18
72308;BME280;60257;42.638;23.376;2023-04-06T01:40:52;94258.03;;;-0.57;66.91
72308;BME280;60257;42.638;23.376;2023-04-06T01:43:17;94263.06;;;-0.50;66.77
72308;BME280;60257;42.638;23.376;2023-04-06T01:45:43;94247.81;;;-0.60;66.82
72308;BME280;60257;42.638;23.376;2023-04-06T01:48:08;94255.50;;;-0.48;67.24
72308;BME280;60257;42.638;23.376;2023-04-06T01:50:33;94248.22;;;-0.48;66.56
72308;BME280;60257;42.638;23.376;2023-04-06T01:52:59;94250.13;;;-0.29;66.29
72308;BME280;60257;42.638;23.376;2023-04-06T01:55:25;94247.00;;;-0.36;66.34
72308;BME280;60257;42.638;23.376;2023-04-06T01:57:51;94241.03;;;-0.33;66.15
72308;BME280;60257;42.638;23.376;2023-04-06T02:00:16;94249.78;;;-0.42;66.16
72308;BME280;60257;42.638;23.376;2023-04-06T02:02:42;94245.72;;;-0.39;66.52
72308;BME280;60257;42.638;23.376;2023-04-06T02:05:08;94242.69;;;-0.38;66.26
72308;BME280;60257;42.638;23.376;2023-04-06T02:07:33;94233.53;;;-0.36;66.44
72308;BME280;60257;42.638;23.376;2023-04-06T02:09:59;94234.63;;;-0.38;66.23
72308;BME280;60257;42.638;23.376;2023-04-06T02:12:25;94245.84;;;-0.30;66.22
72308;BME280;60257;42.638;23.376;2023-04-06T02:14:50;94244.38;;;-0.23;66.61
72308;BME280;60257;42.638;23.376;2023-04-06T02:17:16;94236.25;;;-0.18;65.96
72308;BME280;60257;42.638;23.376;2023-04-06T02:19:41;94232.41;;;-0.12;65.61
72308;BME280;60257;42.638;23.376;2023-04-06T02:22:07;94243.03;;;-0.02;64.99
72308;BME280;60257;42.638;23.376;2023-04-06T02:24:32;94236.63;;;-0.06;65.37
72308;BME280;60257;42.638;23.376;2023-04-06T02:26:58;94243.03;;;-0.02;65.41
72308;BME280;60257;42.638;23.376;2023-04-06T02:29:23;94229.78;;;0.02;65.09
72308;BME280;60257;42.638;23.376;2023-04-06T02:31:49;94235.59;;;0.09;64.72
72308;BME280;60257;42.638;23.376;2023-04-06T02:34:14;94231.75;;;-0.04;65.44
72308;BME280;60257;42.638;23.376;2023-04-06T02:36:46;94232.53;;;-0.03;65.47
72308;BME280;60257;42.638;23.376;2023-04-06T02:39:12;94227.34;;;0.00;65.37
72308;BME280;60257;42.638;23.376;2023-04-06T02:41:38;94240.34;;;-0.02;65.56
72308;BME280;60257;42.638;23.376;2023-04-06T02:44:07;94243.09;;;-0.07;65.51
72308;BME280;60257;42.638;23.376;2023-04-06T02:46:34;94246.97;;;-0.13;65.95
72308;BME280;60257;42.638;23.376;2023-04-06T02:48:59;94232.41;;;-0.12;65.87
72308;BME280;60257;42.638;23.376;2023-04-06T02:51:26;94232.31;;;-0.07;65.74
72308;BME280;60257;42.638;23.376;2023-04-06T02:53:52;94237.63;;;-0.20;66.20
72308;BME280;60257;42.638;23.376;2023-04-06T02:56:18;94241.13;;;-0.20;65.89
72308;BME280;60257;42.638;23.376;2023-04-06T02:58:44;94236.03;;;-0.21;66.26
72308;BME280;60257;42.638;23.376;2023-04-06T03:01:10;94218.34;;;-0.09;65.78
72308;BME280;60257;42.638;23.376;2023-04-06T03:03:35;94229.53;;;-0.20;66.21
72308;BME280;60257;42.638;23.376;2023-04-06T03:06:01;94228.09;;;-0.13;66.25
72308;BME280;60257;42.638;23.376;2023-04-06T03:08:26;94240.56;;;-0.17;65.99
72308;BME280;60257;42.638;23.376;2023-04-06T03:10:52;94232.41;;;-0.12;65.84
72308;BME280;60257;42.638;23.376;2023-04-06T03:13:17;94226.66;;;-0.24;66.69
72308;BME280;60257;42.638;23.376;2023-04-06T03:15:43;94229.47;;;-0.15;66.25
72308;BME280;60257;42.638;23.376;2023-04-06T03:18:08;94227.56;;;-0.15;66.50
72308;BME280;60257;42.638;23.376;2023-04-06T03:20:34;94223.41;;;-0.07;66.20
72308;BME280;60257;42.638;23.376;2023-04-06T03:22:59;94215.41;;;-0.12;65.88
72308;BME280;60257;42.638;23.376;2023-04-06T03:25:25;94231.59;;;-0.12;66.03
72308;BME280;60257;42.638;23.376;2023-04-06T03:27:50;94221.47;;;-0.20;66.38
72308;BME280;60257;42.638;23.376;2023-04-06T03:30:16;94226.72;;;-0.10;66.14
72308;BME280;60257;42.638;23.376;2023-04-06T03:32:45;94227.88;;;-0.16;66.21
72308;BME280;60257;42.638;23.376;2023-04-06T03:35:10;94234.13;;;-0.21;66.34
72308;BME280;60257;42.638;23.376;2023-04-06T03:37:36;94230.59;;;-0.16;66.27
72308;BME280;60257;42.638;23.376;2023-04-06T03:40:02;94238.44;;;-0.20;66.40
72308;BME280;60257;42.638;23.376;2023-04-06T03:42:28;94238.44;;;-0.20;66.53
72308;BME280;60257;42.638;23.376;2023-04-06T03:44:53;94223.88;;;-0.19;66.32
72308;BME280;60257;42.638;23.376;2023-04-06T03:47:19;94230.91;;;-0.23;66.09
72308;BME280;60257;42.638;23.376;2023-04-06T03:49:45;94230.16;;;-0.23;65.98
72308;BME280;60257;42.638;23.376;2023-04-06T03:52:10;94233.03;;;-0.20;66.04
72308;BME280;60257;42.638;23.376;2023-04-06T03:54:36;94229.34;;;-0.24;66.17
72308;BME280;60257;42.638;23.376;2023-04-06T03:57:02;94230.63;;;-0.21;65.99
72308;BME280;60257;42.638;23.376;2023-04-06T03:59:27;94226.66;;;-0.24;66.53
72308;BME280;60257;42.638;23.376;2023-04-06T04:01:53;94212.56;;;-0.21;66.11
72308;BME280;60257;42.638;23.376;2023-04-06T04:04:18;94215.34;;;-0.07;66.02
72308;BME280;60257;42.638;23.376;2023-04-06T04:06:44;94208.78;;;-0.20;65.18
72308;BME280;60257;42.638;23.376;2023-04-06T04:09:10;94222.25;;;-0.20;66.11
72308;BME280;60257;42.638;23.376;2023-04-06T04:11:35;94228.91;;;-0.12;65.75
72308;BME280;60257;42.638;23.376;2023-04-06T04:14:01;94237.88;;;-0.17;65.81
72308;BME280;60257;42.638;23.376;2023-04-06T04:16:26;94226.03;;;-0.21;65.85
72308;BME280;60257;42.638;23.376;2023-04-06T04:18:52;94238.66;;;-0.16;65.93
72308;BME280;60257;42.638;23.376;2023-04-06T04:21:17;94211.56;;;-0.25;65.90
72308;BME280;60257;42.638;23.376;2023-04-06T04:23:43;94220.38;;;-0.19;66.12
72308;BME280;60257;42.638;23.376;2023-04-06T04:26:08;94237.13;;;-0.04;65.43
72308;BME280;60257;42.638;23.376;2023-04-06T04:28:34;94223.56;;;0.02;65.33
72308;BME280;60257;42.638;23.376;2023-04-06T04:30:59;94228.97;;;0.02;65.30
72308;BME280;60257;42.638;23.376;2023-04-06T04:33:25;94253.47;;;0.05;65.32
72308;BME280;60257;42.638;23.376;2023-04-06T04:35:51;94239.03;;;0.15;65.15
72308;BME280;60257;42.638;23.376;2023-04-06T04:38:16;94239.09;;;0.10;65.30
72308;BME280;60257;42.638;23.376;2023-04-06T04:40:42;94239.53;;;0.17;64.77
72308;BME280;60257;42.638;23.376;2023-04-06T04:43:07;94238.72;;;0.16;64.89
72308;BME280;60257;42.638;23.376;2023-04-06T04:45:32;94235.97;;;0.21;64.89
72308;BME280;60257;42.638;23.376;2023-04-06T04:47:58;94231.44;;;0.17;65.17
72308;BME280;60257;42.638;23.376;2023-04-06T04:50:23;94231.66;;;0.20;65.15
72308;BME280;60257;42.638;23.376;2023-04-06T04:52:49;94234.66;;;0.19;64.81
72308;BME280;60257;42.638;23.376;2023-04-06T04:55:15;94227.28;;;0.24;64.61
72308;BME280;60257;42.638;23.376;2023-04-06T04:57:40;94235.59;;;0.28;64.58
72308;BME280;60257;42.638;23.376;2023-04-06T05:00:06;94235.59;;;0.28;64.61
72308;BME280;60257;42.638;23.376;2023-04-06T05:02:32;94239.28;;;0.32;64.53
72308;BME280;60257;42.638;23.376;2023-04-06T05:04:57;94238.19;;;0.33;64.08
72308;BME280;60257;42.638;23.376;2023-04-06T05:07:23;94235.03;;;0.31;64.01
72308;BME280;60257;42.638;23.376;2023-04-06T05:09:49;94226.34;;;0.15;64.40
72308;BME280;60257;42.638;23.376;2023-04-06T05:12:14;94231.00;;;0.28;64.09
72308;BME280;60257;42.638;23.376;2023-04-06T05:14:40;94230.63;;;0.35;64.61
72308;BME280;60257;42.638;23.376;2023-04-06T05:17:06;94235.31;;;0.29;64.78
72308;BME280;60257;42.638;23.376;2023-04-06T05:19:31;94230.19;;;0.28;64.27
72308;BME280;60257;42.638;23.376;2023-04-06T05:21:57;94226.84;;;0.36;64.43
72308;BME280;60257;42.638;23.376;2023-04-06T05:24:22;94238.63;;;0.40;64.74
72308;BME280;60257;42.638;23.376;2023-04-06T05:26:48;94235.88;;;0.45;64.82
72308;BME280;60257;42.638;23.376;2023-04-06T05:29:14;94245.19;;;0.53;64.61
72308;BME280;60257;42.638;23.376;2023-04-06T05:31:40;94250.41;;;0.63;64.14
72308;BME280;60257;42.638;23.376;2023-04-06T05:34:07;94231.19;;;0.51;63.82
72308;BME280;60257;42.638;23.376;2023-04-06T05:36:34;94234.22;;;0.63;63.96
72308;BME280;60257;42.638;23.376;2023-04-06T05:39:00;94241.47;;;0.81;64.00
72308;BME280;60257;42.638;23.376;2023-04-06T05:41:25;94236.72;;;0.92;63.66
72308;BME280;60257;42.638;23.376;2023-04-06T05:43:51;94239.63;;;1.09;63.20
72308;BME280;60257;42.638;23.376;2023-04-06T05:46:18;94236.59;;;0.97;63.92
72308;BME280;60257;42.638;23.376;2023-04-06T05:48:44;94232.00;;;0.97;63.81
72308;BME280;60257;42.638;23.376;2023-04-06T05:51:10;94235.13;;;1.04;63.54
72308;BME280;60257;42.638;23.376;2023-04-06T05:53:36;94226.09;;;1.09;63.70
72308;BME280;60257;42.638;23.376;2023-04-06T05:56:02;94230.75;;;1.22;63.17
72308;BME280;60257;42.638;23.376;2023-04-06T05:58:28;94227.03;;;1.32;63.37
72308;BME280;60257;42.638;23.376;2023-04-06T06:00:58;94230.81;;;1.17;63.11
72308;BME280;60257;42.638;23.376;2023-04-06T06:03:24;94226.66;;;1.38;63.05
72308;BME280;60257;42.638;23.376;2023-04-06T06:05:49;94212.66;;;1.23;62.82
72308;BME280;60257;42.638;23.376;2023-04-06T06:08:15;94235.34;;;1.22;63.32
72308;BME280;60257;42.638;23.376;2023-04-06T06:10:40;94222.94;;;1.48;62.70
72308;BME280;60257;42.638;23.376;2023-04-06T06:13:06;94233.06;;;1.70;62.20
72308;BME280;60257;42.638;23.376;2023-04-06T06:15:32;94217.13;;;1.68;62.34
72308;BME280;60257;42.638;23.376;2023-04-06T06:17:57;94217.16;;;1.54;62.11
72308;BME280;60257;42.638;23.376;2023-04-06T06:20:23;94222.06;;;1.39;62.53
72308;BME280;60257;42.638;23.376;2023-04-06T06:22:48;94212.34;;;1.51;62.52
72308;BME280;60257;42.638;23.376;2023-04-06T06:25:14;94210.53;;;1.61;62.44
72308;BME280;60257;42.638;23.376;2023-04-06T06:27:39;94223.84;;;1.43;62.87
72308;BME280;60257;42.638;23.376;2023-04-06T06:30:05;94203.13;;;1.25;63.42
72308;BME280;60257;42.638;23.376;2023-04-06T06:32:31;94199.31;;;1.26;63.48
72308;BME280;60257;42.638;23.376;2023-04-06T06:34:57;94215.34;;;1.36;63.41
72308;BME280;60257;42.638;23.376;2023-04-06T06:37:22;94219.22;;;1.58;62.74
72308;BME280;60257;42.638;23.376;2023-04-06T06:39:48;94219.22;;;1.58;62.69
72308;BME280;60257;42.638;23.376;2023-04-06T06:42:13;94207.94;;;1.42;63.20
72308;BME280;60257;42.638;23.376;2023-04-06T06:44:39;94209.72;;;1.60;63.46
72308;BME280;60257;42.638;23.376;2023-04-06T06:47:05;94217.09;;;1.82;63.36
72308;BME280;60257;42.638;23.376;2023-04-06T06:49:30;94196.16;;;1.87;62.05
72308;BME280;60257;42.638;23.376;2023-04-06T06:51:55;94224.88;;;1.97;62.34
72308;BME280;60257;42.638;23.376;2023-04-06T06:54:21;94222.47;;;1.96;62.13
72308;BME280;60257;42.638;23.376;2023-04-06T06:56:46;94221.84;;;2.12;61.93
72308;BME280;60257;42.638;23.376;2023-04-06T06:59:12;94222.22;;;2.19;61.60
72308;BME280;60257;42.638;23.376;2023-04-06T07:01:37;94217.63;;;2.20;61.63
72308;BME280;60257;42.638;23.376;2023-04-06T07:04:03;94215.41;;;2.22;61.50
72308;BME280;60257;42.638;23.376;2023-04-06T07:06:29;94191.03;;;1.86;62.15
72308;BME280;60257;42.638;23.376;2023-04-06T07:08:54;94215.91;;;2.24;61.78
72308;BME280;60257;42.638;23.376;2023-04-06T07:11:20;94217.81;;;2.23;60.89
72308;BME280;60257;42.638;23.376;2023-04-06T07:13:46;94211.25;;;2.38;61.37
72308;BME280;60257;42.638;23.376;2023-04-06T07:16:11;94208.84;;;2.37;61.25
72308;BME280;60257;42.638;23.376;2023-04-06T07:18:36;94201.22;;;2.39;61.97
72308;BME280;60257;42.638;23.376;2023-04-06T07:21:02;94213.59;;;2.31;61.37
72308;BME280;60257;42.638;23.376;2023-04-06T07:23:28;94215.59;;;2.25;62.24
72308;BME280;60257;42.638;23.376;2023-04-06T07:25:53;94209.69;;;2.23;62.20
72308;BME280;60257;42.638;23.376;2023-04-06T07:28:20;94217.97;;;2.63;61.40
72308;BME280;60257;42.638;23.376;2023-04-06T07:30:45;94231.09;;;2.56;60.90
72308;BME280;60257;42.638;23.376;2023-04-06T07:33:11;94220.47;;;2.59;58.94
72308;BME280;60257;42.638;23.376;2023-04-06T07:35:37;94199.50;;;2.43;59.54
72308;BME280;60257;42.638;23.376;2023-04-06T07:38:03;94213.38;;;2.50;59.95
72308;BME280;60257;42.638;23.376;2023-04-06T07:40:28;94193.66;;;2.49;60.37
72308;BME280;60257;42.638;23.376;2023-04-06T07:42:54;94204.22;;;2.59;59.86
72308;BME280;60257;42.638;23.376;2023-04-06T07:45:19;94191.06;;;2.44;60.29
72308;BME280;60257;42.638;23.376;2023-04-06T07:47:45;94207.44;;;2.61;60.40
72308;BME280;60257;42.638;23.376;2023-04-06T07:50:11;94204.91;;;2.65;59.45
72308;BME280;60257;42.638;23.376;2023-04-06T07:52:37;94216.41;;;2.48;60.53
72308;BME280;60257;42.638;23.376;2023-04-06T07:55:02;94211.31;;;2.47;60.32
72308;BME280;60257;42.638;23.376;2023-04-06T07:57:28;94212.34;;;2.59;60.45
72308;BME280;60257;42.638;23.376;2023-04-06T07:59:53;94215.97;;;2.77;60.33
72308;BME280;60257;42.638;23.376;2023-04-06T08:02:19;94196.34;;;2.71;60.20
72308;BME280;60257;42.638;23.376;2023-04-06T08:04:44;94198.63;;;2.78;60.62
72308;BME280;60257;42.638;23.376;2023-04-06T08:07:10;94208.91;;;2.67;60.14
72308;BME280;60257;42.638;23.376;2023-04-06T08:09:36;94189.47;;;2.65;60.70
72308;BME280;60257;42.638;23.376;2023-04-06T08:12:02;94179.00;;;2.72;60.49
72308;BME280;60257;42.638;23.376;2023-04-06T08:14:28;94203.16;;;2.91;59.86
72308;BME280;60257;42.638;23.376;2023-04-06T08:16:53;94195.66;;;2.88;59.93
72308;BME280;60257;42.638;23.376;2023-04-06T08:19:19;94187.00;;;3.08;59.27
72308;BME280;60257;42.638;23.376;2023-04-06T08:21:45;94203.66;;;3.24;58.90
72308;BME280;60257;42.638;23.376;2023-04-06T08:24:11;94193.69;;;3.11;59.29
72308;BME280;60257;42.638;23.376;2023-04-06T08:26:37;94194.47;;;3.42;58.93
72308;BME280;60257;42.638;23.376;2023-04-06T08:29:03;94194.38;;;3.65;58.38
72308;BME280;60257;42.638;23.376;2023-04-06T08:31:29;94196.78;;;3.66;58.54
72308;BME280;60257;42.638;23.376;2023-04-06T08:33:55;94200.00;;;3.77;57.67
72308;BME280;60257;42.638;23.376;2023-04-06T08:36:21;94208.84;;;3.52;57.56
72308;BME280;60257;42.638;23.376;2023-04-06T08:38:48;94191.84;;;3.68;57.76
72308;BME280;60257;42.638;23.376;2023-04-06T08:41:15;94203.84;;;3.84;57.42
72308;BME280;60257;42.638;23.376;2023-04-06T08:43:49;94191.09;;;3.85;56.80
72308;BME280;60257;42.638;23.376;2023-04-06T08:46:18;94193.63;;;3.81;57.11
72308;BME280;60257;42.638;23.376;2023-04-06T08:48:44;94194.59;;;3.85;55.43
72308;BME280;60257;42.638;23.376;2023-04-06T08:51:11;94188.13;;;3.47;55.07
72308;BME280;60257;42.638;23.376;2023-04-06T08:53:37;94196.28;;;3.16;56.00
72308;BME280;60257;42.638;23.376;2023-04-06T08:56:03;94204.13;;;3.26;55.82
72308;BME280;60257;42.638;23.376;2023-04-06T08:58:34;94159.19;;;3.34;54.76
72308;BME280;60257;42.638;23.376;2023-04-06T09:01:00;94184.13;;;3.44;54.37
72308;BME280;60257;42.638;23.376;2023-04-06T09:03:28;94182.16;;;3.36;54.95
72308;BME280;60257;42.638;23.376;2023-04-06T09:05:54;94190.56;;;3.26;55.71
72308;BME280;60257;42.638;23.376;2023-04-06T09:08:20;94170.47;;;3.19;55.52
72308;BME280;60257;42.638;23.376;2023-04-06T09:10:46;94190.94;;;3.42;56.54
72308;BME280;60257;42.638;23.376;2023-04-06T09:13:12;94187.47;;;3.50;55.59
72308;BME280;60257;42.638;23.376;2023-04-06T09:15:38;94179.53;;;3.54;55.71
72308;BME280;60257;42.638;23.376;2023-04-06T09:18:05;94190.75;;;3.69;56.04
72308;BME280;60257;42.638;23.376;2023-04-06T09:20:31;94173.97;;;3.67;56.13
72308;BME280;60257;42.638;23.376;2023-04-06T09:22:56;94188.97;;;3.73;55.64
72308;BME280;60257;42.638;23.376;2023-04-06T09:25:23;94180.59;;;3.44;55.50
72308;BME280;60257;42.638;23.376;2023-04-06T09:28:10;94178.59;;;3.67;55.65
72308;BME280;60257;42.638;23.376;2023-04-06T09:30:36;94175.25;;;3.61;55.26
72308;BME280;60257;42.638;23.376;2023-04-06T09:33:12;94156.06;;;3.58;55.50
72308;BME280;60257;42.638;23.376;2023-04-06T09:35:37;94163.81;;;3.90;55.05
72308;BME280;60257;42.638;23.376;2023-04-06T09:38:10;94187.88;;;3.74;54.56
72308;BME280;60257;42.638;23.376;2023-04-06T09:40:47;94183.09;;;3.71;55.34
72308;BME280;60257;42.638;23.376;2023-04-06T09:43:31;94176.44;;;3.38;54.71
72308;BME280;60257;42.638;23.376;2023-04-06T09:45:59;94144.41;;;3.48;55.21
72308;BME280;60257;42.638;23.376;2023-04-06T09:48:27;94158.22;;;3.78;55.37
72308;BME280;60257;42.638;23.376;2023-04-06T09:50:59;94179.94;;;4.12;55.03
72308;BME280;60257;42.638;23.376;2023-04-06T09:53:26;94169.56;;;3.97;54.07
72308;BME280;60257;42.638;23.376;2023-04-06T09:55:57;94182.81;;;3.99;53.67
72308;BME280;60257;42.638;23.376;2023-04-06T09:58:23;94161.56;;;3.83;53.38
72308;BME280;60257;42.638;23.376;2023-04-06T10:01:10;94183.03;;;3.54;53.90
72308;BME280;60257;42.638;23.376;2023-04-06T10:06:22;94195.34;;;3.69;53.88
72308;BME280;60257;42.638;23.376;2023-04-06T10:08:49;94174.13;;;3.62;53.74
72308;BME280;60257;42.638;23.376;2023-04-06T10:11:16;94177.81;;;3.75;53.37
72308;BME280;60257;42.638;23.376;2023-04-06T10:13:41;94177.22;;;3.95;53.28
72308;BME280;60257;42.638;23.376;2023-04-06T10:16:08;94173.41;;;4.13;52.71
72308;BME280;60257;42.638;23.376;2023-04-06T10:18:34;94176.59;;;4.15;52.89
72308;BME280;60257;42.638;23.376;2023-04-06T10:21:09;94167.94;;;3.87;52.34
72308;BME280;60257;42.638;23.376;2023-04-06T10:23:52;94157.59;;;4.07;51.76
72308;BME280;60257;42.638;23.376;2023-04-06T10:26:20;94175.63;;;4.20;52.04
72308;BME280;60257;42.638;23.376;2023-04-06T10:28:47;94151.22;;;4.29;51.51
72308;BME280;60257;42.638;23.376;2023-04-06T10:31:13;94165.59;;;4.38;50.80
72308;BME280;60257;42.638;23.376;2023-04-06T10:33:40;94162.22;;;4.49;51.09
72308;BME280;60257;42.638;23.376;2023-04-06T10:36:21;94161.56;;;4.61;50.67
72308;BME280;60257;42.638;23.376;2023-04-06T10:38:46;94158.84;;;4.78;50.28
72308;BME280;60257;42.638;23.376;2023-04-06T10:41:12;94161.81;;;5.02;50.42
72308;BME280;60257;42.638;23.376;2023-04-06T10:43:41;94144.25;;;4.91;49.90
72308;BME280;60257;42.638;23.376;2023-04-06T10:46:08;94168.19;;;5.07;49.52
72308;BME280;60257;42.638;23.376;2023-04-06T10:48:42;94169.06;;;5.28;49.08
72308;BME280;60257;42.638;23.376;2023-04-06T10:51:11;94173.91;;;5.22;48.95
72308;BME280;60257;42.638;23.376;2023-04-06T10:53:36;94165.41;;;5.32;48.02
72308;BME280;60257;42.638;23.376;2023-04-06T10:56:03;94164.16;;;5.21;48.63
72308;BME280;60257;42.638;23.376;2023-04-06T10:58:29;94162.69;;;5.32;47.81
72308;BME280;60257;42.638;23.376;2023-04-06T11:00:56;94166.66;;;5.35;48.27
72308;BME280;60257;42.638;23.376;2023-04-06T11:03:21;94170.63;;;5.37;48.55
72308;BME280;60257;42.638;23.376;2023-04-06T11:05:48;94176.66;;;5.05;50.02
72308;BME280;60257;42.638;23.376;2023-04-06T11:08:29;94171.34;;;5.26;49.33
72308;BME280;60257;42.638;23.376;2023-04-06T11:11:10;94165.94;;;5.17;50.15
72308;BME280;60257;42.638;23.376;2023-04-06T11:13:40;94162.25;;;5.51;49.33
72308;BME280;60257;42.638;23.376;2023-04-06T11:16:07;94159.94;;;6.00;47.97
72308;BME280;60257;42.638;23.376;2023-04-06T11:18:37;94173.06;;;5.68;47.46
72308;BME280;60257;42.638;23.376;2023-04-06T11:21:02;94175.19;;;5.92;47.65
72308;BME280;60257;42.638;23.376;2023-04-06T11:23:28;94145.63;;;6.11;46.60
72308;BME280;60257;42.638;23.376;2023-04-06T11:25:54;94159.50;;;6.18;45.94
72308;BME280;60257;42.638;23.376;2023-04-06T11:28:20;94139.50;;;6.14;46.01
72308;BME280;60257;42.638;23.376;2023-04-06T11:30:46;94144.50;;;6.33;46.00
72308;BME280;60257;42.638;23.376;2023-04-06T11:33:20;94146.00;;;6.43;45.15
72308;BME280;60257;42.638;23.376;2023-04-06T11:35:46;94142.84;;;6.74;45.37
72308;BME280;60257;42.638;23.376;2023-04-06T11:38:12;94158.13;;;6.33;45.67
72308;BME280;60257;42.638;23.376;2023-04-06T11:40:37;94158.50;;;6.23;47.30
72308;BME280;60257;42.638;23.376;2023-04-06T11:43:04;94157.69;;;6.23;46.61
72308;BME280;60257;42.638;23.376;2023-04-06T11:45:39;94139.38;;;6.32;46.55
72308;BME280;60257;42.638;23.376;2023-04-06T11:48:05;94150.13;;;6.07;47.32
72308;BME280;60257;42.638;23.376;2023-04-06T11:50:33;94151.50;;;6.13;46.60
72308;BME280;60257;42.638;23.376;2023-04-06T11:53:01;94146.22;;;6.38;46.21
72308;BME280;60257;42.638;23.376;2023-04-06T11:55:27;94138.06;;;6.17;46.77
72308;BME280;60257;42.638;23.376;2023-04-06T11:57:53;94139.50;;;6.35;46.08
72308;BME280;60257;42.638;23.376;2023-04-06T12:00:20;94141.75;;;6.12;46.53
72308;BME280;60257;42.638;23.376;2023-04-06T12:02:47;94153.69;;;6.20;45.77
72308;BME280;60257;42.638;23.376;2023-04-06T12:05:13;94151.50;;;5.93;46.39
72308;BME280;60257;42.638;23.376;2023-04-06T12:07:38;94142.44;;;5.80;46.57
72308;BME280;60257;42.638;23.376;2023-04-06T12:10:04;94141.41;;;5.64;46.81
72308;BME280;60257;42.638;23.376;2023-04-06T12:12:30;94140.19;;;5.53;47.50
72308;BME280;60257;42.638;23.376;2023-04-06T12:14:57;94141.09;;;5.27;48.35
72308;BME280;60257;42.638;23.376;2023-04-06T12:17:22;94140.81;;;5.12;49.07
72308;BME280;60257;42.638;23.376;2023-04-06T12:19:48;94135.31;;;5.29;48.92
72308;BME280;60257;42.638;23.376;2023-04-06T12:22:14;94138.28;;;5.07;48.41
72308;BME280;60257;42.638;23.376;2023-04-06T12:24:39;94124.56;;;5.03;48.91
72308;BME280;60257;42.638;23.376;2023-04-06T12:27:06;94136.59;;;4.85;49.80
72308;BME280;60257;42.638;23.376;2023-04-06T12:29:31;94142.50;;;4.95;49.99
72308;BME280;60257;42.638;23.376;2023-04-06T12:31:57;94151.38;;;5.13;49.33
72308;BME280;60257;42.638;23.376;2023-04-06T12:34:23;94131.53;;;5.21;49.37
72308;BME280;60257;42.638;23.376;2023-04-06T12:36:48;94126.59;;;5.15;49.09
72308;BME280;60257;42.638;23.376;2023-04-06T12:39:15;94130.91;;;5.16;49.38
72308;BME280;60257;42.638;23.376;2023-04-06T12:41:42;94125.19;;;5.09;49.11
72308;BME280;60257;42.638;23.376;2023-04-06T12:44:07;94131.03;;;5.19;49.03
72308;BME280;60257;42.638;23.376;2023-04-06T12:46:33;94130.84;;;4.95;48.66
72308;BME280;60257;42.638;23.376;2023-04-06T12:48:59;94130.16;;;5.07;49.22
72308;BME280;60257;42.638;23.376;2023-04-06T12:51:27;94124.09;;;5.01;49.27
72308;BME280;60257;42.638;23.376;2023-04-06T12:53:53;94118.38;;;4.94;48.81
72308;BME280;60257;42.638;23.376;2023-04-06T12:56:19;94116.78;;;4.93;48.82